Time;durP1;ratioP1;P1;durP2;ratioP2;P2;SDS_P1;SDS_P2;PMS_P1;PMS_P2;Temp;Humidity;BMP_temperature;BMP_pressure;BME280_temperature;BME280_humidity;BME280_pressure;Samples;Min_cycle;Max_cycle;Signal;HPM_P1;HPM_P2
2021/01/02 00:00:25;;;;;;;;;;;;;;;2.81;69.61;99905.05;119011;1147;104468;-72
2021/01/02 00:03:07;;;;;;;;;;;;;;;2.83;69.24;99911.05;118762;1147;104455;-75
2021/01/02 00:05:40;;;;;;;;;;;;;;;2.86;69.90;99906.41;118665;1147;106011;-71
2021/01/02 00:08:14;;;;;;;;;;;;;;;2.83;70.14;99906.65;118959;1147;104498;-72
2021/01/02 00:10:57;;;;;;;108.47;87.47;;;;;;;2.87;69.46;99896.73;118880;1148;104854;-72
2021/01/02 00:13:41;;;;;;;;;;;;;;;2.84;69.86;99897.77;118960;1147;104462;-72
2021/01/02 00:16:19;;;;;;;;;;;;;;;2.79;69.67;99905.20;118867;1148;104476;-72
2021/01/02 00:18:55;;;;;;;;;;;;;;;2.81;69.11;99908.55;118772;1147;104911;-71
2021/01/02 00:21:26;;;;;;;;;;;;;;;2.83;70.23;99905.78;118783;1147;104476;-71
2021/01/02 00:24:02;;;;;;;;;;;;;;;2.86;68.80;99908.20;119021;1147;104553;-71
2021/01/02 00:26:34;;;;;;;;;;;;;;;2.90;69.56;99896.48;118471;1147;104460;-72
2021/01/02 00:29:03;;;;;;;;;;;;;;;2.91;69.42;99904.28;118661;1147;104483;-72
2021/01/02 00:31:48;;;;;;;;;;;;;;;3.01;69.12;99914.98;118994;1147;104458;-72
2021/01/02 00:34:33;;;;;;;;;;;;;;;3.06;69.52;99918.14;118969;1147;104492;-72
2021/01/02 00:37:03;;;;;;;;;;;;;;;3.13;69.33;99921.98;118918;1148;104492;-73
2021/01/02 00:39:35;;;;;;;;;;;;;;;3.16;68.98;99918.30;118746;1148;104551;-73
2021/01/02 00:42:03;;;;;;;;;;;;;;;3.17;68.58;99924.40;118703;1148;104504;-73
2021/01/02 00:44:31;;;;;;;;;;;;;;;3.17;68.56;99924.40;118581;1148;104598;-73
2021/01/02 00:46:59;;;;;;;;;;;;;;;3.22;69.87;99927.55;118806;1147;104559;-73
2021/01/02 00:49:28;;;;;;;;;;;;;;;3.27;69.07;99915.70;118900;1147;104474;-73
2021/01/02 00:52:02;;;;;;;;;;;;;;;3.30;69.12;99914.63;118883;1147;104559;-73
2021/01/02 00:54:36;;;;;;;;;;;;;;;3.35;69.09;99920.41;118825;1147;104566;-73
2021/01/02 00:57:03;;;;;;;;;;;;;;;3.36;68.96;99921.23;118783;1147;104495;-73
2021/01/02 00:59:46;;;;;;;;;;;;;;;3.32;68.87;99920.62;118888;1147;104831;-73
2021/01/02 01:02:32;;;;;;;;;;;;;;;3.30;69.73;99925.17;119001;1147;104464;-73
2021/01/02 01:05:04;;;;;;;;;;;;;;;3.34;69.91;99921.34;118913;1148;104553;-74
2021/01/02 01:07:33;;;;;;;;;;;;;;;3.34;68.87;99923.98;118982;1147;104578;-72
2021/01/02 01:10:01;;;;;;;;;;;;;;;3.30;68.65;99922.53;118583;1147;104548;-73
2021/01/02 01:12:28;;;;;;;;;;;;;;;3.31;68.66;99918.92;119019;1147;104572;-71
2021/01/02 01:14:56;;;;;;;;;;;;;;;3.28;68.82;99921.81;118883;1147;104896;-72
2021/01/02 01:17:23;;;;;;;;;;;;;;;3.26;70.06;99934.27;118596;1147;104569;-74
2021/01/02 01:19:53;;;;;;;;;;;;;;;3.25;68.96;99922.89;118651;1148;104476;-72
2021/01/02 01:22:23;;;;;;;;;;;;;;;3.19;69.67;99930.40;119024;1147;104529;-74
2021/01/02 01:24:59;;;;;;;;;;;;;;;3.20;69.83;99926.83;118970;1147;104455;-73
2021/01/02 01:27:29;;;;;;;;;;;;;;;3.25;68.97;99932.57;118974;1148;104572;-72
2021/01/02 01:30:00;;;;;;;;;;;;;;;3.22;68.44;99933.66;119000;1148;104551;-72
2021/01/02 01:32:28;;;;;;;;;;;;;;;3.19;68.72;99933.03;118898;1147;104551;-71
2021/01/02 01:34:56;;;;;;;;;;;;;;;3.19;69.26;99940.95;118897;1147;104479;-71
2021/01/02 01:37:27;;;;;;;;;;;;;;;3.14;69.72;99938.66;119003;1147;104463;-72
2021/01/02 01:39:54;;;;;;;;;;;;;;;3.11;69.73;99938.88;118867;1147;104514;-71
2021/01/02 01:42:37;;;;;;;;;;;;;;;3.02;70.35;99944.81;118941;1148;104581;-71
2021/01/02 01:45:14;;;;;;;;;;;;;;;3.05;68.86;99937.53;119064;1148;104553;-71
2021/01/02 01:47:42;;;;;;;;;;;;;;;3.12;69.39;99943.20;119046;1147;104486;-70
2021/01/02 01:50:24;;;;;;;;;;;;;;;3.09;68.76;99944.25;118864;1148;104455;-70
2021/01/02 01:53:18;;;;;;;;;;;;;;;3.07;69.03;99946.16;118867;1147;104502;-70
2021/01/02 01:55:53;;;;;;;;;;;;;;;3.08;68.60;99952.27;118794;1147;104523;-71
2021/01/02 01:58:27;;;;;;;;;;;;;;;3.09;69.04;99956.59;118911;1147;104454;-71
2021/01/02 02:01:02;;;;;;;;;;;;;;;3.03;69.87;99955.25;118803;1147;104581;-72
2021/01/02 02:03:34;;;;;;;;;;;;;;;3.05;69.64;99950.70;118857;1148;104503;-72
2021/01/02 02:06:01;;;;;;;;;;;;;;;3.12;70.43;99944.04;118874;1148;104495;-72
2021/01/02 02:08:42;;;;;;;;;;;;;;;3.19;69.50;99943.58;118882;1147;104544;-72
2021/01/02 02:11:17;;;;;;;;;;;;;;;3.21;68.64;99947.77;118837;1147;104553;-72
2021/01/02 02:13:50;;;;;;;;;;;;;;;3.23;68.91;99951.14;118743;1147;104558;-72
2021/01/02 02:16:19;;;;;;;;;;;;;;;3.24;68.63;99954.64;118716;1147;104498;-72
2021/01/02 02:18:49;;;;;;;;;;;;;;;3.21;69.34;99946.95;118596;1147;104456;-72
2021/01/02 02:21:27;;;;;;;;;;;;;;;3.20;68.57;99948.75;118818;1147;104473;-72
2021/01/02 02:23:59;;;;;;;;;;;;;;;3.27;69.62;99947.34;118804;1146;104476;-72
2021/01/02 02:26:30;;;;;;;;;;;;;;;3.35;69.40;99949.41;118869;1147;104483;-72
2021/01/02 02:29:14;;;;;;;;;;;;;;;3.38;69.84;99941.25;118980;1147;104454;-72
2021/01/02 02:31:43;;;;;;;;;;;;;;;3.41;69.61;99938.40;119035;1147;104518;-71
2021/01/02 02:34:10;;;;;;;;;;;;;;;3.42;68.91;99945.34;118946;1147;104476;-72
2021/01/02 02:36:38;;;;;;;;;;;;;;;3.40;69.58;99939.34;118937;1148;104550;-72
2021/01/02 02:39:07;;;;;;;;;;;;;;;3.36;69.16;99950.25;118996;1147;104479;-72
2021/01/02 02:41:36;;;;;;;;;;;;;;;3.33;68.61;99946.05;118991;1147;104563;-72
2021/01/02 02:44:04;;;;;;;;;;;;;;;3.29;69.77;99953.34;119022;1148;104483;-72
2021/01/02 02:46:34;;;;;;;;;;;;;;;3.25;68.83;99957.17;118832;1147;104495;-72
2021/01/02 02:49:05;;;;;;;;;;;;;;;3.21;68.74;99958.32;118902;1147;104579;-72
2021/01/02 02:51:35;;;;;;;;;;;;;;;3.15;68.92;99954.34;118979;1147;104548;-72
2021/01/02 02:54:03;;;;;;;;;;;;;;;3.14;69.75;99951.84;118831;1147;104469;-72
2021/01/02 02:56:30;;;;;;;;;;;;;;;3.09;68.79;99944.25;118910;1147;104453;-72
2021/01/02 02:58:57;;;;;;;;;;;;;;;3.11;69.02;99949.42;118900;1147;104553;-73
2021/01/02 03:01:24;;;;;;;;;;;;;;;3.13;69.91;99948.34;118855;1147;104454;-73
2021/01/02 03:03:51;;;;;;;;;;;;;;;3.10;69.05;99939.84;118856;1147;104559;-72
2021/01/02 03:06:18;;;;;;;;;;;;;;;3.10;69.60;99939.84;118894;1147;104486;-72
2021/01/02 03:08:49;;;;;;;;;;;;;;;3.12;69.56;99943.20;119037;1147;104549;-72
2021/01/02 03:11:16;;;;;;;;;;;;;;;3.04;69.30;99940.27;119007;1148;104455;-71
2021/01/02 03:13:44;;;;;;;;;;;;;;;2.98;68.91;99936.29;118927;1147;104567;-71
2021/01/02 03:16:11;;;;;;;;;;;;;;;3.01;70.34;99940.52;118638;1147;104466;-71
2021/01/02 03:18:38;;;;;;;;;;;;;;;3.02;69.35;99932.50;118975;1148;104544;-71
2021/01/02 03:21:05;;;;;;;;;;;;;;;3.02;70.27;99940.41;118972;1148;104441;-72
2021/01/02 03:23:41;;;;;;;;;;;;;;;3.02;69.91;99945.68;118476;1147;104558;-72
2021/01/02 03:26:08;;;;;;;;;;;;;;;3.02;70.08;99942.18;118655;1148;104455;-73
2021/01/02 03:28:35;;;;;;;;;;;;;;;3.04;70.03;99941.13;119001;1147;104460;-73
2021/01/02 03:31:02;;;;;;;;;;;;;;;3.07;69.06;99945.33;118966;1147;104476;-74
2021/01/02 03:33:29;;;;;;;;;;;;;;;3.06;70.15;99946.27;118703;1148;104519;-73
2021/01/02 03:36:00;;;;;;;;;;;;;;;3.09;69.14;99949.52;119037;1148;104560;-73
2021/01/02 03:38:29;;;;;;;;;;;;;;;3.08;69.82;99942.59;119048;1147;104435;-73
2021/01/02 03:40:56;;;;;;;;;;;;;;;3.07;69.64;99946.16;118868;1147;104514;-73
2021/01/02 03:43:24;;;;;;;;;;;;;;;3.03;68.59;99944.71;118845;1147;104466;-73
2021/01/02 03:45:51;;;;;;;;;;;;;;;3.01;69.26;99946.62;118936;1148;104542;-72
2021/01/02 03:48:18;;;;;;;;;;;;;;;3.00;69.36;99952.83;118670;1148;104955;-72
2021/01/02 03:50:45;;;;;;;;;;;;;;;2.97;69.88;99955.70;118767;1148;104479;-72
2021/01/02 03:53:12;;;;;;;;;;;;;;;2.95;69.14;99952.34;118628;1147;104546;-72
2021/01/02 03:55:40;;;;;;;;;;;;;;;2.95;69.82;99960.25;118702;1148;104555;-72
2021/01/02 03:58:08;;;;;;;;;;;;;;;2.97;70.20;99966.25;118733;1147;104450;-73
2021/01/02 04:00:35;;;;;;;;;;;;;;;2.93;69.66;99964.80;118881;1147;104460;-73
2021/01/02 04:03:02;;;;;;;;;;;;;;;2.98;70.32;99967.91;118937;1147;104673;-72
2021/01/02 04:05:29;;;;;;;;;;;;;;;3.03;69.15;99967.59;118919;1147;104553;-72
2021/01/02 04:07:56;;;;;;;;;;;;;;;3.01;70.11;99980.88;118958;1147;104529;-73
2021/01/02 04:10:23;;;;;;;;;;;;;;;2.99;69.19;99969.61;119026;1148;104474;-73
2021/01/02 04:12:50;;;;;;;;;;;;;;;3.00;69.81;99979.19;118560;1148;104585;-74
2021/01/02 04:15:17;;;;;;;;;;;;;;;2.94;70.42;99979.64;118751;1147;104565;-72
2021/01/02 04:17:44;;;;;;;;;;;;;;;2.99;69.76;99980.16;119094;1147;104540;-73
2021/01/02 04:20:12;;;;;;;;;;;;;;;3.07;68.82;99983.06;118997;1146;104546;-71
2021/01/02 04:22:39;;;;;;;;;;;;;;;3.14;69.79;99984.31;118926;1147;104559;-73
2021/01/02 04:25:07;;;;;;;;;;;;;;;3.20;69.91;99983.02;118674;1147;104456;-73
2021/01/02 04:27:34;;;;;;;;;;;;;;;3.20;70.03;99987.46;118985;1148;104521;-72
2021/01/02 04:30:01;;;;;;;;;;;;;;;3.24;68.67;99988.92;118945;1147;104480;-73
2021/01/02 04:32:28;;;;;;;;;;;;;;;3.27;68.61;99983.40;118948;1147;104611;-72
2021/01/02 04:34:55;;;;;;;;;;;;;;;3.23;69.92;99992.49;118884;1148;104503;-72
2021/01/02 04:37:27;;;;;;;;;;;;;;;3.19;69.76;99986.59;118847;1147;104465;-73
2021/01/02 04:39:54;;;;;;;;;;;;;;;3.23;70.02;99992.49;118977;1147;104475;-72
2021/01/02 04:42:22;;;;;;;;;;;;;;;3.26;70.33;99992.28;118850;1146;104529;-72
2021/01/02 04:44:50;;;;;;;;;;;;;;;3.30;69.10;99991.09;118938;1147;104470;-73
2021/01/02 04:47:18;;;;;;;;;;;;;;;3.20;69.15;99990.09;118888;1148;104476;-72
2021/01/02 04:49:45;;;;;;;;;;;;;;;3.12;69.75;99991.49;118799;1146;104548;-72
2021/01/02 04:52:13;;;;;;;;;;;;;;;3.12;70.33;100002.03;118962;1147;104453;-73
2021/01/02 04:54:41;;;;;;;;;;;;;;;3.09;69.09;99999.61;118895;1147;104471;-73
2021/01/02 04:57:10;;;;;;;;;;;;;;;3.06;69.18;100002.48;119055;1147;104710;-71
2021/01/02 04:59:38;;;;;;;;;;;;;;;3.06;69.61;100010.40;119083;1147;104495;-71
2021/01/02 05:02:06;;;;;;;;;;;;;;;3.10;69.08;100011.85;118915;1147;104485;-72
2021/01/02 05:04:33;;;;;;;;;;;;;;;3.13;70.27;100019.52;118944;1147;104441;-73
2021/01/02 05:07:01;;;;;;;;;;;;;;;3.17;69.18;100014.03;118788;1147;104535;-73
2021/01/02 05:09:28;;;;;;;;;;;;;;;3.22;68.81;100022.47;118899;1147;104454;-71
2021/01/02 05:11:55;;;;;;;;;;;;;;;3.21;69.60;100031.31;118858;1147;104462;-72
2021/01/02 05:14:22;;;;;;;;;;;;;;;3.12;69.78;100020.49;119007;1147;104468;-73
2021/01/02 05:16:49;;;;;;;;;;;;;;;3.09;70.10;100025.97;118826;1147;104498;-72
2021/01/02 05:19:16;;;;;;;;;;;;;;;3.03;68.75;100028.22;118868;1147;104551;-73
2021/01/02 05:21:44;;;;;;;;;;;;;;;3.04;69.73;100022.84;118951;1147;104590;-71
2021/01/02 05:24:12;;;;;;;;;;;;;;;3.03;69.87;100023.78;118889;1147;104465;-71
2021/01/02 05:26:41;;;;;;;;;;;;;;;3.05;69.89;100031.59;118845;1147;104457;-71
2021/01/02 05:29:08;;;;;;;;;;;;;;;3.08;69.45;100033.98;118899;1147;104479;-72
2021/01/02 05:31:38;;;;;;;379.53;260.90;;;;;;;3.10;70.33;100040.85;118789;1147;105092;-72
2021/01/02 05:34:07;;;;;;;307.10;73.20;;;;;;;3.09;69.16;100043.59;119011;1147;104534;-71
2021/01/02 05:36:34;;;;;;;;;;;;;;;3.03;68.73;100036.97;118954;1147;104449;-71
2021/01/02 05:39:02;;;;;;;;;;;;;;;3.06;68.79;100047.30;118958;1146;104717;-71
2021/01/02 05:41:45;;;;;;;;;;;;;;;3.04;69.48;100041.30;118879;1147;104473;-71
2021/01/02 05:44:13;;;;;;;;;;;;;;;3.05;69.72;100042.97;118940;1147;105183;-71
2021/01/02 05:46:46;;;;;;;384.30;190.50;;;;;;;3.18;69.87;100044.73;118971;1146;104625;-71
2021/01/02 05:49:35;;;;;;;376.80;197.30;;;;;;;3.20;69.71;100048.11;118672;1147;104548;-71
2021/01/02 05:52:05;;;;;;;585.45;177.55;;;;;;;3.17;69.01;100049.14;118850;1147;104551;-71
2021/01/02 05:54:35;;;;;;;547.40;124.00;;;;;;;3.15;68.59;100043.14;118920;1147;104637;-71
2021/01/02 05:57:05;;;;;;;542.15;115.30;;;;;;;3.08;69.53;100048.03;118835;1147;105810;-71
2021/01/02 05:59:34;;;;;;;;;;;;;;;3.14;70.34;100047.58;118916;1147;104551;-71
2021/01/02 06:02:15;;;;;;;;;;;;;;;3.25;70.05;100053.86;118724;1147;105170;-72
2021/01/02 06:04:52;;;;;;;;;;;;;;;3.31;68.69;100054.28;118915;1147;104463;-71
2021/01/02 06:07:19;;;;;;;;;;;;;;;3.36;69.65;100059.20;118830;1147;104564;-72
2021/01/02 06:09:47;;;;;;;;;;;;;;;3.34;68.35;100053.20;118988;1147;104456;-72
2021/01/02 06:12:23;;;;;;;;;;;;;;;3.27;69.81;100052.82;118976;1147;104476;-71
2021/01/02 06:14:51;;;;;;;;;;;;;;;3.21;69.56;100060.31;119017;1147;104465;-72
2021/01/02 06:17:25;;;;;;;;;;;;;;;3.15;69.70;100058.96;118862;1147;104554;-72
2021/01/02 06:19:52;;;;;;;;;;;;;;;3.07;69.53;100051.60;118947;1147;104470;-72
2021/01/02 06:22:19;;;;;;;;;;;;;;;3.02;69.76;100058.16;118826;1146;104545;-72
2021/01/02 06:24:48;;;;;;;;;;;;;;;3.06;69.80;100063.12;118848;1147;104478;-74
2021/01/02 06:27:16;;;;;;;615.80;216.70;;;;;;;3.05;70.08;100066.69;118510;1147;104604;-71
2021/01/02 06:29:48;;;;;;;;;;;;;;;2.99;69.12;100061.86;118905;1147;104549;-71
2021/01/02 06:32:15;;;;;;;;;;;;;;;2.98;68.66;100068.07;118874;1147;104479;-71
2021/01/02 06:34:42;;;;;;;;;;;;;;;3.03;70.24;100078.30;118973;1147;104559;-71
2021/01/02 06:37:09;;;;;;;;;;;;;;;3.04;69.09;100075.56;118959;1146;104480;-71
2021/01/02 06:39:36;;;;;;;;;;;;;;;3.04;69.83;100075.56;118832;1147;104553;-71
2021/01/02 06:42:24;;;;;;;;;;;;;;;3.02;69.75;100080.11;118870;1147;104516;-71
2021/01/02 06:44:51;;;;;;;;;;;;;;;2.95;69.36;100089.39;118758;1147;104556;-71
2021/01/02 06:47:19;;;;;;;;;;;;;;;2.93;69.05;100086.86;118773;1147;104489;-71
2021/01/02 06:49:47;;;;;;;;;;;;;;;2.95;69.63;100092.86;118656;1147;104562;-71
2021/01/02 06:52:30;;;;;;;;;;;;;;;3.02;69.10;100092.42;118799;1147;104498;-69
2021/01/02 06:55:12;;;;;;;;;;;;;;;3.00;68.60;100100.43;118914;1147;104553;-73
2021/01/02 06:57:39;;;;;;;;;;;;;;;2.98;69.45;100101.50;118806;1148;104458;-71
2021/01/02 07:00:20;;;;;;;;;;;;;;;3.01;70.15;100096.86;118859;1147;104498;-71
2021/01/02 07:02:47;;;;;;;;;;;;;;;3.05;69.81;100100.95;118438;1147;104464;-70
2021/01/02 07:05:28;;;;;;;;;;;;;;;3.07;68.48;100099.05;118521;1147;104463;-69
2021/01/02 07:07:55;;;;;;;;;;;;;;;3.07;69.56;100100.86;118486;1147;104601;-71
2021/01/02 07:10:23;;;;;;;;;;;;;;;3.08;69.16;100108.66;118657;1147;104553;-71
2021/01/02 07:12:50;;;;;;;;;;;;;;;3.02;69.14;100108.23;118604;1147;104483;-71
2021/01/02 07:15:17;;;;;;;;;;;;;;;2.96;69.70;100112.14;118581;1148;104469;-72
2021/01/02 07:17:44;;;;;;;;;;;;;;;2.95;69.82;100121.02;118993;1148;104496;-71
2021/01/02 07:20:12;;;;;;;;;;;;;;;2.96;68.77;100125.33;119064;1147;104491;-71
2021/01/02 07:22:39;;;;;;;;;;;;;;;2.94;69.73;100127.23;119033;1148;104481;-71
2021/01/02 07:25:08;;;;;;;;;;;;;;;2.90;69.60;100126.59;118993;1147;104495;-71
2021/01/02 07:27:36;;;;;;;;;;;;;;;2.90;69.79;100129.23;119004;1147;104473;-72
2021/01/02 07:30:07;;;;;;;;;;;;;;;2.91;69.20;100128.30;118712;1146;104476;-72
2021/01/02 07:32:36;;;;;;;;;;;;;;;2.95;69.69;100136.83;118989;1147;104553;-71
2021/01/02 07:35:03;;;;;;;;;;;;;;;2.95;69.79;100139.47;118821;1148;104593;-72
2021/01/02 07:37:32;;;;;;;;;;;;;;;2.88;69.12;100146.11;118665;1148;104489;-72
2021/01/02 07:40:03;;;;;;;;;;;;;;;2.84;69.96;100149.91;118773;1147;104857;-72
2021/01/02 07:42:31;;;;;;;;;;;;;;;2.82;69.24;100143.91;118764;1148;104529;-72
2021/01/02 07:45:04;;;;;;;;;;;;;;;2.84;70.10;100150.74;118639;1147;104482;-73
2021/01/02 07:47:31;;;;;;;;;;;;;;;2.88;69.56;100148.74;118633;1146;104480;-72
2021/01/02 07:50:06;;;;;;;;;;;;;;;2.94;69.40;100156.22;118837;1147;104893;-72
2021/01/02 07:52:33;;;;;;;;;;;;;;;2.97;69.99;100157.81;119006;1147;104865;-72
2021/01/02 07:55:06;;;;;;;;;;;;;;;3.01;69.61;100152.22;118985;1147;104503;-73
2021/01/02 07:57:33;;;;;;;;;;;;;;;3.02;69.45;100159.19;119006;1148;104541;-73
2021/01/02 08:00:00;;;;;;;;;;;;;;;3.05;68.72;100166.86;119006;1147;104466;-72
2021/01/02 08:02:28;;;;;;;;;;;;;;;3.09;69.24;100163.05;118959;1147;104556;-72
2021/01/02 08:04:55;;;;;;;;;;;;;;;3.17;68.86;100166.95;119008;1147;104493;-73
2021/01/02 08:07:22;;;;;;;;;;;;;;;3.23;68.93;100169.16;119002;1148;104473;-72
2021/01/02 08:09:50;;;;;;;;;;;;;;;3.21;69.13;100173.70;118979;1147;104503;-72
2021/01/02 08:12:18;;;;;;;;;;;;;;;3.17;68.65;100167.79;119004;1147;104607;-72
2021/01/02 08:14:46;;;;;;;;;;;;;;;3.19;68.64;100175.59;119015;1148;104479;-72
2021/01/02 08:17:14;;;;;;;;;;;;;;;3.19;69.75;100175.59;119024;1147;104887;-72
2021/01/02 08:19:53;;;;;;;;;;;;;;;3.17;69.09;100177.50;118995;1148;104456;-72
2021/01/02 08:22:27;;;;;;;;;;;;;;;3.15;69.50;100180.24;118977;1147;104460;-72
2021/01/02 08:24:55;;;;;;;;;;;;;;;3.20;69.21;100182.57;119062;1148;104476;-72
2021/01/02 08:27:23;;;;;;;;;;;;;;;3.23;68.54;100179.70;119017;1147;104938;-71
2021/01/02 08:29:50;;;;;;;;;;;;;;;3.26;68.72;100182.14;118978;1147;104559;-72
2021/01/02 08:32:20;;;;;;;;;;;;;;;3.33;69.18;100188.67;118967;1147;104496;-72
2021/01/02 08:34:47;;;;;;;;;;;;;;;3.39;69.40;100172.41;118887;1147;104604;-72
2021/01/02 08:37:16;;;;;;;;;;;;;;;3.49;68.72;100188.42;118928;1147;104540;-73
2021/01/02 08:39:44;;;;;;;;;;;;;;;3.57;69.55;100198.42;118885;1147;104550;-73
2021/01/02 08:42:11;;;;;;;;;;;;;;;3.61;69.33;100197.25;119053;1147;104479;-73
2021/01/02 08:44:43;;;;;;;;;;;;;;;3.66;69.38;100195.97;118955;1147;104559;-71
2021/01/02 08:47:11;;;;;;;;;;;;;;;3.64;69.06;100197.05;118831;1147;104442;-72
2021/01/02 08:49:42;;;;;;;;;;;;;;;3.67;69.14;100191.53;118900;1147;104473;-72
2021/01/02 08:52:29;;;;;;;;;;;;;;;3.71;69.20;100193.85;118924;1148;104535;-71
2021/01/02 08:55:08;;;;;;;;;;;;;;;3.79;68.67;100195.94;118811;1147;104510;-73
2021/01/02 08:57:35;;;;;;;;;;;;;;;3.80;68.15;100204.69;119025;1147;104480;-70
2021/01/02 09:00:07;;;;;;;;;;;;;;;3.77;68.98;100205.73;118864;1148;104556;-72
2021/01/02 09:02:34;;;;;;;;;;;;;;;3.81;68.38;100206.36;118634;1147;104530;-71
2021/01/02 09:05:06;;;;;;;;;;;;;;;3.80;68.93;100208.16;118915;1148;104579;-71
2021/01/02 09:07:33;;;;;;;;;;;;;;;3.82;68.16;100205.42;118926;1147;104476;-71
2021/01/02 09:10:15;;;;;;;;;;;;;;;3.80;68.77;100218.72;118837;1147;104549;-71
2021/01/02 09:12:43;;;;;;;;;;;;;;;3.71;68.90;100214.97;118864;1148;104537;-72
2021/01/02 09:15:11;;;;;;;;;;;;;;;3.71;68.90;100201.77;118867;1147;104456;-71
2021/01/02 09:17:48;;;;;;;;;;;;;;;3.72;68.98;100205.24;118780;1147;104467;-71
2021/01/02 09:20:16;;;;;;;;;;;;;;;3.72;68.31;100194.69;118942;1148;104459;-71
2021/01/02 09:22:52;;;;;;;;;;;;;;;3.80;69.30;100191.49;118882;1147;104502;-71
2021/01/02 09:25:20;;;;;;;;;;;;;;;3.90;68.25;100201.25;118916;1147;104498;-71
2021/01/02 09:27:47;;;;;;;;;;;;;;;3.95;68.13;100200.94;118504;1146;104448;-70
2021/01/02 09:30:14;;;;;;;;;;;;;;;3.98;67.97;100203.34;118680;1146;104457;-70
2021/01/02 09:32:42;;;;;;;;;;;;;;;4.01;67.91;100213.69;119047;1147;104451;-71
2021/01/02 09:35:10;;;;;;;;;;;;;;;3.98;68.75;100211.26;118988;1147;104487;-78
2021/01/02 09:37:37;;;;;;;;;;;;;;;4.02;68.79;100218.02;119070;1146;104533;-74
2021/01/02 09:40:15;;;;;;;;;;;;;;;4.06;68.13;100218.62;119164;1147;104454;-74
2021/01/02 09:42:42;;;;;;;;;;;;;;;4.10;68.91;100210.37;119010;1147;104614;-70
2021/01/02 09:45:10;;;;;;;;;;;;;;;4.17;68.68;100212.56;118725;1147;104572;-73
2021/01/02 09:47:37;;;;;;;;;;;;;;;4.20;68.25;100204.42;119061;1147;104553;-71
2021/01/02 09:50:06;;;;;;;;;;;;;;;4.18;68.06;100201.89;118995;1147;104451;-71
2021/01/02 09:52:33;;;;;;;;;;;;;;;4.16;68.17;100201.16;118995;1147;104490;-71
2021/01/02 09:55:01;;;;;;;;;;;;;;;4.22;68.13;100205.98;118347;1147;104895;-71
2021/01/02 09:57:28;;;;;;;;;;;;;;;4.24;67.96;100211.16;119711;1146;104656;-71
2021/01/02 09:59:55;;;;;;;;;;;;;;;4.19;68.18;100208.84;119226;1146;104457;-71
2021/01/02 10:02:22;;;;;;;;;;;;;;;4.18;67.88;100201.89;118622;1147;104886;-70
2021/01/02 10:04:54;;;;;;;;;;;;;;;4.21;68.11;100211.38;118704;1148;104562;-73
2021/01/02 10:07:21;;;;;;;;;;;;;;;4.20;68.06;100204.42;118791;1148;104549;-70
2021/01/02 10:09:48;;;;;;;;;;;;;;;4.22;67.86;100191.95;118500;1147;104867;-70
2021/01/02 10:12:18;;;;;;;;;;;;;;;4.26;67.92;100188.95;118490;1147;104591;-71
2021/01/02 10:14:45;;;;;;;;;;;;;;;4.32;68.35;100185.84;119479;1146;104462;-70
2021/01/02 10:17:13;;;;;;;;;;;;;;;4.39;67.92;100182.73;118991;1148;104541;-71
2021/01/02 10:19:44;;;;;;;;;;;;;;;4.36;68.11;100173.25;118851;1147;104855;-71
2021/01/02 10:22:12;;;;;;;;;;;;;;;4.30;67.21;100166.63;118849;1147;104550;-70
2021/01/02 10:24:39;;;;;;;;;;;;;;;4.28;67.87;100163.27;119614;1146;104487;-70
2021/01/02 10:27:07;;;;;;;;;;;;;;;4.27;67.39;100158.95;118637;1147;104594;-71
2021/01/02 10:29:36;;;;;;;;;;;;;;;4.24;67.07;100159.17;119148;1146;104450;-72
2021/01/02 10:32:04;;;;;;;;;;;;;;;4.29;67.90;100162.32;118804;1147;104482;-70
2021/01/02 10:34:31;;;;;;;;;;;;;;;4.32;67.63;100167.35;118656;1147;104481;-72
2021/01/02 10:36:58;;;;;;;;;;;;;;;4.39;67.55;100182.73;118730;1147;104496;-70
2021/01/02 10:39:25;;;;;;;;;;;;;;;4.41;67.89;100178.21;118951;1147;104490;-71
2021/01/02 10:41:52;;;;;;;;;;;;;;;4.42;67.77;100185.16;118861;1146;104481;-71
2021/01/02 10:44:20;;;;;;;;;;;;;;;4.43;67.76;100178.94;118856;1147;104529;-71
2021/01/02 10:46:48;;;;;;;;;;;;;;;4.46;67.75;100181.33;118510;1148;104478;-71
2021/01/02 10:49:16;;;;;;;;;;;;;;;4.47;67.25;100191.79;118727;1148;104574;-70
2021/01/02 10:51:45;;;;;;;;;;;;;;;4.38;67.43;100184.55;118660;1147;104481;-70
2021/01/02 10:54:12;;;;;;;;;;;;;;;4.38;67.52;100173.98;118459;1147;104466;-70
2021/01/02 10:56:43;;;;;;;;;;;;;;;4.40;67.48;100164.14;118781;1148;104601;-70
2021/01/02 10:59:11;;;;;;;;;;;;;;;4.40;67.30;100168.59;118981;1147;104602;-70
2021/01/02 11:01:41;;;;;;;;;;;;;;;4.39;67.18;100165.11;118930;1147;104572;-70
2021/01/02 11:04:09;;;;;;;;;;;;;;;4.44;67.67;100170.03;119168;1146;104550;-70
2021/01/02 11:06:38;;;;;;;;;;;;;;;4.42;67.66;100172.78;118884;1146;104486;-71
2021/01/02 11:09:05;;;;;;;;;;;;;;;4.47;67.60;100180.38;118776;1147;104572;-70
2021/01/02 11:11:33;;;;;;;;;;;;;;;4.53;67.84;100174.62;118658;1147;104494;-72
2021/01/02 11:14:00;;;;;;;;;;;;;;;4.61;67.50;100180.16;118880;1147;104858;-71
2021/01/02 11:16:30;;;;;;;;;;;;;;;4.60;67.61;100183.78;118759;1147;104473;-70
2021/01/02 11:18:57;;;;;;;;;;;;;;;4.59;67.53;100181.25;118788;1147;104547;-71
2021/01/02 11:21:25;;;;;;;;;;;;;;;4.59;67.39;100168.88;118882;1146;105001;-71
2021/01/02 11:23:52;;;;;;;;;;;;;;;4.61;67.46;100168.77;119034;1148;104553;-71
2021/01/02 11:26:19;;;;;;;;;;;;;;;4.59;67.33;100173.33;119060;1147;104502;-72
2021/01/02 11:28:47;;;;;;;;;;;;;;;4.60;67.00;100181.14;118513;1147;104450;-71
2021/01/02 11:31:14;;;;;;;;;;;;;;;4.65;67.34;100184.26;118780;1146;104496;-70
2021/01/02 11:33:41;;;;;;;;;;;;;;;4.58;67.17;100177.77;118687;1147;104623;-71
2021/01/02 11:36:08;;;;;;;;;;;;;;;4.58;67.57;100176.91;119148;1147;104479;-71
2021/01/02 11:38:35;;;;;;;;;;;;;;;4.58;67.06;100172.48;119015;1146;104476;-71
2021/01/02 11:41:02;;;;;;;;;;;;;;;4.57;67.39;100186.65;118892;1146;104482;-71
2021/01/02 11:43:29;;;;;;;;;;;;;;;4.58;67.24;100177.77;118785;1146;104563;-71
2021/01/02 11:45:56;;;;;;;;;;;;;;;4.60;67.65;100178.50;118431;1147;104461;-72
2021/01/02 11:48:23;;;;;;;;;;;;;;;4.61;67.16;100164.31;118677;1147;104452;-71
2021/01/02 11:50:50;;;;;;;;;;;;;;;4.63;67.18;100175.61;119315;1146;104554;-70
2021/01/02 11:53:17;;;;;;;;;;;;;;;4.59;67.20;100166.23;118964;1148;104528;-69
2021/01/02 11:55:44;;;;;;;;;;;;;;;4.54;67.33;100160.44;118665;1147;105372;-70
2021/01/02 11:58:11;;;;;;;;;;;;;;;4.57;67.24;100165.51;118918;1147;104529;-70
2021/01/02 12:00:39;;;;;;;;;;;;;;;4.60;67.29;100167.93;119176;1147;104501;-70
2021/01/02 12:03:07;;;;;;;;;;;;;;;4.62;67.17;100168.66;118428;1147;104471;-69
2021/01/02 12:05:34;;;;;;;;;;;;;;;4.64;67.22;100173.83;118769;1148;104604;-71
2021/01/02 12:08:01;;;;;;;;;;;;;;;4.61;67.29;100174.88;118803;1146;104495;-71
2021/01/02 12:10:29;;;;;;;;;;;;;;;4.62;67.22;100176.58;118709;1146;104492;-73
2021/01/02 12:12:56;;;;;;;;;;;;;;;4.60;67.25;100175.86;118475;1146;104550;-73
2021/01/02 12:15:23;;;;;;;;;;;;;;;4.58;66.92;100172.48;118825;1147;105015;-72
2021/01/02 12:17:50;;;;;;;;;;;;;;;4.58;67.15;100176.91;118897;1147;104473;-72
2021/01/02 12:20:17;;;;;;;;;;;;;;;4.55;67.47;100170.07;118521;1147;104480;-71
2021/01/02 12:22:44;;;;;;;;;;;;;;;4.59;67.15;100176.80;119467;1147;104460;-72
2021/01/02 12:25:12;;;;;;;;;;;;;;;4.62;67.14;100181.87;118793;1147;104449;-70
2021/01/02 12:27:39;;;;;;;;;;;;;;;4.60;67.12;100181.14;118725;1146;104490;-72
2021/01/02 12:30:07;;;;;;;;;;;;;;;4.56;67.21;100179.70;118823;1147;104537;-72
2021/01/02 12:32:34;;;;;;;;;;;;;;;4.56;67.15;100177.05;119250;1147;104551;-70
2021/01/02 12:35:02;;;;;;;;;;;;;;;4.63;67.00;100174.77;118922;1146;104476;-70
2021/01/02 12:37:30;;;;;;;;;;;;;;;4.66;67.11;100178.02;118985;1147;104508;-71
2021/01/02 12:39:58;;;;;;;;;;;;;;;4.74;67.23;100181.89;118509;1147;104476;-69